Terminal Aerodrome Forecast
Issued by NWS

Home | Current Version | Previous Version | Text Only | Print | Product List | Glossary On
Versions: 1 2 3 4 5 6 7 8 9 10 11 12
815
FTUS46 KMFR 250532
TAFOTH
TAF
KOTH 250532Z 2506/2606 30007KT P6SM SKC
     FM250700 18003KT 4SM BR BKN010
     FM251100 19003KT 1/2SM FG OVC003
     FM251900 26007KT 5SM BR OVC010
     FM260000 26010G16KT P6SM OVC015
     FM260200 25008KT 5SM BR OVC007=

USA.gov is the U.S. government's official web portal to all federal, state and local government web resources and services.